• Join FlightAware (Why Join?)
  • Login
  • US Flag 
07:27PM EDT


 

Airport Tracker/Info


-or-


 

Live Flight TrackerFlight Track Log ✈ N693PD ✈ 13-May-2013 ✈ KRYY - KORL

Flight Track Log - Related Links

Times and Time Zones

All times are in EDT time to prevent confusion due to time zone crossing. See the N693PD flight status page for this flight to view local times or setup timezone preferences in your user account.

Time Position Orientation Groundspeed Altitude Reporting Facility
EDT Latitude Longitude Course Direction KTS MPH feet Rate Location/Type
08:11AM 33.9667 -84.6500 160° South 182 209 3,000  Level Atlanta TRACON
08:12AM 33.9000 -84.6833 203° Southwest 236 272 3,100  Climbing Atlanta TRACON
08:13AM 33.8333 -84.6833 180° South 249 287 3,100  Level Atlanta TRACON
08:14AM 33.7667 -84.7000 192° South 254 292 3,100  Level Atlanta TRACON
08:15AM 33.7000 -84.7000 180° South 253 291 3,100  Level Atlanta TRACON
08:16AM 33.6695 -84.3786 160° South  Level Estimated
08:16AM 33.6333 -84.6833 168° South 251 289 3,100  Level Atlanta TRACON
08:17AM 33.5500 -84.6667 171° South 255 293 3,100  Level Atlanta TRACON
08:18AM 33.4833 -84.6667 180° South 253 291 3,100 660 Level Atlanta TRACON
08:19AM 33.4167 -84.6167 148° Southeast 218 251 4,500 1,200 Climbing Atlanta TRACON
08:20AM 33.3833 -84.5833 140° Southeast 211 243 5,500 600 Climbing Atlanta TRACON
08:21AM 33.2964 -84.5233 150° Southeast 245 282 6,100 600 Climbing Atlanta Center
08:22AM 33.2425 -84.4758 144° Southeast 245 282 7,100 1,020 Climbing Atlanta Center
08:23AM 33.1861 -84.4286 145° Southeast 234 269 8,200 1,020 Climbing Atlanta Center
08:24AM 33.1364 -84.3786 140° Southeast 234 269 9,200 1,260 Climbing Atlanta Center
08:25AM 33.0800 -84.3536 160° South 223 257 10,800 1,560 Climbing Atlanta Center
08:26AM 33.0278 -84.3311 160° South 207 238 12,400 1,500 Climbing Atlanta Center
08:27AM 32.9778 -84.3086 159° South 207 238 13,900 1,320 Climbing Atlanta Center
08:28AM 32.9256 -84.2864 160° South 207 238 15,100 1,200 Climbing Atlanta Center
08:29AM 32.8736 -84.2589 156° South 207 238 16,400 1,200 Climbing Atlanta Center
08:30AM 32.8214 -84.2367 160° South 202 232 17,500 900 Climbing Atlanta Center
08:31AM 32.7672 -84.2092 157° South 208 239 18,300 720 Climbing Atlanta Center
08:32AM 32.7131 -84.1819 157° South 208 239 19,000 300 Climbing Atlanta Center
08:33AM 32.6503 -84.1547 160° South 223 257 19,000  Level Atlanta Center
08:36AM 32.5117 -84.0850 157° South 266 306 19,000  Level Jacksonville Center
08:37AM 32.4411 -84.0519 158° South 271 312 19,000  Level Jacksonville Center
08:38AM 32.3703 -84.0192 159° South 276 318 19,000  Level Jacksonville Center
08:39AM 32.3017 -83.9864 158° South 276 318 19,000  Level Jacksonville Center
08:40AM 32.2311 -83.9536 159° South 271 312 19,000  Level Jacksonville Center
08:41AM 32.1625 -83.9208 158° South 271 312 19,000  Level Jacksonville Center
08:42AM 32.0917 -83.8858 157° South 276 318 19,000  Level Jacksonville Center
08:43AM 32.0250 -83.8606 162° South 271 312 19,000  Level Jacksonville Center
08:44AM 31.9522 -83.8231 156° South 271 312 19,000  Level Jacksonville Center
08:44AM 31.9147 -83.8081 161° South 270 311 19,000  Level Jacksonville Center
08:45AM 31.8878 -83.7881 148° Southeast 271 312 19,000  Level Jacksonville Center
08:45AM 31.8419 -83.7706 162° South 270 311 19,000  Level Jacksonville Center
08:46AM 31.8169 -83.7581 157° South 271 312 19,000  Level Jacksonville Center
08:46AM 31.7711 -83.7381 160° South 269 310 19,000  Level Jacksonville Center
08:47AM 31.7483 -83.7233 151° Southeast 271 312 19,000  Level Jacksonville Center
08:47AM 31.7047 -83.7081 163° South 266 306 19,000  Level Jacksonville Center
08:48AM 31.6797 -83.6883 146° Southeast 271 312 19,000  Level Jacksonville Center
08:48AM 31.6275 -83.6733 166° South 263 303 19,000  Level Jacksonville Center
08:49AM 31.6108 -83.6611 148° Southeast 271 312 19,000  Level Jacksonville Center
08:49AM 31.5589 -83.6411 162° South 261 300 19,000  Level Jacksonville Center
08:50AM 31.5464 -83.6289 140° Southeast 264 304 19,000  Level Jacksonville Center
08:50AM 31.4983 -83.6139 165° South 260 299 19,000  Level Jacksonville Center
08:51AM 31.4778 -83.5967 144° Southeast 264 304 19,000  Level Jacksonville Center
08:51AM 31.4278 -83.5792 163° South 258 297 19,000  Level Jacksonville Center
08:52AM 31.3986 -83.5667 160° South 264 304 19,000  Level Jacksonville Center
08:52AM 31.3589 -83.5494 160° South 258 297 19,000  Level Jacksonville Center
08:53AM 31.3422 -83.5372 148° Southeast 264 304 19,000  Level Jacksonville Center
08:53AM 31.2881 -83.5175 163° South 260 299 19,000  Level Jacksonville Center
08:54AM 31.2756 -83.5050 139° Southeast 258 297 19,000  Level Jacksonville Center
08:54AM 31.2172 -83.4828 162° South 262 302 19,000  Level Jacksonville Center
08:55AM 31.1464 -83.4508 159° South 263 303 19,000  Level Jacksonville Center
08:56AM 31.0736 -83.4164 158° South 265 305 19,000  Level Jacksonville Center
08:57AM 31.0422 -83.4017 158° South 264 304 19,000  Level Jacksonville Center
08:57AM 31.0025 -83.3847 160° South 265 305 19,000  Level Jacksonville Center
08:58AM 30.9733 -83.3650 150° Southeast 264 304 19,000  Level Jacksonville Center
08:58AM 30.9422 -83.3578 169° South 266 306 19,000  Level Jacksonville Center
08:59AM 30.9067 -83.3333 149° Southeast 264 304 19,000  Level Jacksonville Center
08:59AM 30.8650 -83.3233 168° South 266 306 19,000  Level Jacksonville Center
09:00AM 30.8003 -83.2917 157° South 264 304 19,000  Level Jacksonville Center
09:01AM 30.7608 -83.2528 140° Southeast 275 316 19,000  Level Jacksonville Center
09:02AM 30.7150 -83.1706 123° Southeast 288 331 19,000  Level Jacksonville Center
09:03AM 30.6714 -83.0906 122° Southeast 294 338 19,000  Level Jacksonville Center
09:04AM 30.6214 -83.0061 125° Southeast 294 338 19,000  Level Jacksonville Center
09:05AM 30.5547 -82.9842 164° South 257 296 19,000  Level Jacksonville Center
09:06AM 30.4900 -82.9600 162° South 245 282 19,000  Level Jacksonville Center
09:07AM 30.4231 -82.9214 154° Southeast 251 289 19,000  Level Jacksonville Center
09:08AM 30.3583 -82.8878 156° South 256 295 19,000  Level Jacksonville Center
09:09AM 30.2917 -82.8758 171° South 250 288 19,000  Level Jacksonville Center
09:10AM 30.2247 -82.8636 171° South 245 282 19,000  Level Jacksonville Center
09:11AM 30.1622 -82.8158 147° Southeast 240 276 19,000 -300 Level Jacksonville Center
09:12AM 30.0972 -82.7750 151° Southeast 254 292 18,500 -660 Descending Jacksonville Center
09:13AM 30.0264 -82.7319 152° Southeast 272 313 17,700 -900 Descending Jacksonville Center
09:14AM 29.9617 -82.6961 154° Southeast 284 327 16,800 -960 Descending Jacksonville Center
09:15AM 29.8864 -82.6531 154° Southeast 284 327 15,800 -900 Descending Jacksonville Center
09:16AM 29.8089 -82.6031 151° Southeast 284 327 15,000 -480 Descending Jacksonville Center
09:17AM 29.7461 -82.5697 155° Southeast 283 326 15,000 -300 Level Jacksonville Center
09:18AM 29.6919 -82.5364 152° Southeast 274 315 14,500 -660 Descending Jacksonville Center
09:18AM 29.6708 -82.5197 146° Southeast 284 327 14,300 -720 Descending Jacksonville Center
09:19AM 29.6208 -82.4936 156° South 282 325 13,800 -720 Descending Jacksonville Center
09:19AM 29.6019 -82.4794 147° Southeast 284 327 13,600 -720 Descending Jacksonville Center
09:20AM 29.5517 -82.4508 154° Southeast 288 331 13,100 -600 Descending Jacksonville Center
09:20AM 29.5286 -82.4344 148° Southeast 284 327 13,000 -600 Descending Jacksonville Center
09:21AM 29.4786 -82.4058 154° Southeast 291 335 12,500 -720 Descending Jacksonville Center
09:21AM 29.4575 -82.3942 154° Southeast 284 327 12,300 -840 Descending Jacksonville Center
09:22AM 29.3989 -82.3611 154° Southeast 296 341 11,700 -840 Descending Jacksonville Center
09:22AM 29.3864 -82.3517 147° Southeast 284 327 11,500 -900 Descending Jacksonville Center
09:23AM 29.3278 -82.3208 155° Southeast 293 337 10,800 -960 Descending Jacksonville Center
09:24AM 29.2589 -82.2761 150° Southeast 291 335 9,800 -1,020 Descending Jacksonville Center
09:25AM 29.2061 -82.2028 129° Southeast 300 345 8,800 -960 Descending Jacksonville Center
09:26AM 29.1475 -82.1317 133° Southeast 285 328 7,900 -720 Descending Jacksonville Center
09:28AM 29.0667 -82.0167 129° Southeast 270 311 7,000 -360 Descending Orlando TRACON
09:29AM 29.0167 -81.9667 139° Southeast 269 310 7,000 -480 Level Orlando TRACON
09:30AM 28.9667 -81.9000 131° Southeast 272 313 6,100 -540 Descending Orlando TRACON
09:31AM 28.9167 -81.8333 131° Southeast 269 310 6,000 -420 Descending Orlando TRACON
09:31AM 28.8667 -81.7833 139° Southeast 260 299 5,300 -960 Descending Orlando TRACON
09:33AM 28.8333 -81.7000 115° Southeast 254 292 4,100 -960 Descending Orlando TRACON
09:34AM 28.8167 -81.6333 106° East 245 282 3,200 -600 Descending Orlando TRACON
09:35AM 28.8000 -81.5500 103° East 233 268 3,000 -120 Descending Orlando TRACON
09:36AM 28.7833 -81.4833 106° East 227 261 3,000  Level Orlando TRACON
09:37AM 28.7833 -81.4167 90° East 221 254 3,000  Level Orlando TRACON
09:38AM 28.7500 -81.3667 127° Southeast 220 253 3,000 -360 Level Orlando TRACON
09:39AM 28.7167 -81.3167 127° Southeast 220 253 2,300 -540 Descending Orlando TRACON
09:40AM 28.6667 -81.2667 139° Southeast 200 230 2,000 -120 Descending Orlando TRACON
09:40AM 28.6167 -81.2500 164° South 174 200 2,100 -360 Climbing Orlando TRACON
09:41AM 28.5833 -81.2667 204° Southwest 149 171 1,400 -780 Descending Orlando TRACON
09:42AM 28.5667 -81.3000 240° Southwest 122 140 600 -780 Descending Orlando TRACON
09:44AM 28.5333 -81.3167 90° East  Level FlightAware Approximate
09:51AM 28.5455 -81.3329 90° East  Level Estimated
09:52AM 28.5455 -81.3329 90° East  Level Estimated
09:53AM 28.5455 -81.3329 90° East  Level Estimated
09:54AM 28.5455 -81.3329 90° East  Level Estimated